Terminal Aerodrome Forecast
Issued by NWS

Home | Current Version | Previous Version | Text Only | Print | Product List | Glossary On
Versions: 1 2 3 4 5 6 7 8 9 10 11 12 13
000
FTUS43 KDVN 030520
TAFBRL
TAF
KBRL 030520Z 0306/0406 30003KT P6SM BKN090
     FM031100 VRB03KT 5SM BR SKC
     FM031400 29006KT P6SM SKC
     FM032100 27010KT P6SM SCT200 PROB30 0403/0406 6SM -SHRA BKN040=

USA.gov is the U.S. government's official web portal to all federal, state and local government web resources and services.